sensor_id;sensor_type;location;lat;lon;timestamp;P1;durP1;ratioP1;P2;durP2;ratioP2
68870;SDS011;55906;52.278;6.808;2024-02-04T00:02:15;25.67;;;14.18;;
68870;SDS011;55906;52.278;6.808;2024-02-04T00:04:42;27.80;;;14.38;;
68870;SDS011;55906;52.278;6.808;2024-02-04T00:07:08;25.63;;;14.07;;
68870;SDS011;55906;52.278;6.808;2024-02-04T00:09:35;30.50;;;14.68;;
68870;SDS011;55906;52.278;6.808;2024-02-04T00:12:02;27.80;;;14.55;;
68870;SDS011;55906;52.278;6.808;2024-02-04T00:14:31;25.40;;;14.68;;
68870;SDS011;55906;52.278;6.808;2024-02-04T00:16:58;25.85;;;14.77;;
68870;SDS011;55906;52.278;6.808;2024-02-04T00:19:26;23.47;;;14.90;;
68870;SDS011;55906;52.278;6.808;2024-02-04T00:21:54;26.13;;;14.43;;
68870;SDS011;55906;52.278;6.808;2024-02-04T00:24:21;25.73;;;15.07;;
68870;SDS011;55906;52.278;6.808;2024-02-04T00:26:49;21.23;;;12.48;;
68870;SDS011;55906;52.278;6.808;2024-02-04T00:29:17;19.02;;;12.63;;
68870;SDS011;55906;52.278;6.808;2024-02-04T00:31:44;17.60;;;10.80;;
68870;SDS011;55906;52.278;6.808;2024-02-04T00:34:10;17.88;;;12.10;;
68870;SDS011;55906;52.278;6.808;2024-02-04T00:36:39;15.13;;;10.40;;
68870;SDS011;55906;52.278;6.808;2024-02-04T00:39:06;16.00;;;9.93;;
68870;SDS011;55906;52.278;6.808;2024-02-04T00:41:33;17.75;;;10.93;;
68870;SDS011;55906;52.278;6.808;2024-02-04T00:44:00;14.43;;;9.00;;
68870;SDS011;55906;52.278;6.808;2024-02-04T00:46:28;13.38;;;9.48;;
68870;SDS011;55906;52.278;6.808;2024-02-04T00:48:55;17.45;;;9.98;;
68870;SDS011;55906;52.278;6.808;2024-02-04T00:51:22;12.77;;;8.93;;
68870;SDS011;55906;52.278;6.808;2024-02-04T00:53:50;11.77;;;8.27;;
68870;SDS011;55906;52.278;6.808;2024-02-04T00:56:18;13.10;;;8.93;;
68870;SDS011;55906;52.278;6.808;2024-02-04T00:58:45;11.50;;;7.65;;
68870;SDS011;55906;52.278;6.808;2024-02-04T01:01:11;11.98;;;9.35;;
68870;SDS011;55906;52.278;6.808;2024-02-04T01:03:38;11.77;;;8.68;;
68870;SDS011;55906;52.278;6.808;2024-02-04T01:06:06;13.70;;;8.25;;
68870;SDS011;55906;52.278;6.808;2024-02-04T01:08:33;12.80;;;8.67;;
68870;SDS011;55906;52.278;6.808;2024-02-04T01:11:04;15.27;;;10.18;;
68870;SDS011;55906;52.278;6.808;2024-02-04T01:13:31;16.95;;;10.82;;
68870;SDS011;55906;52.278;6.808;2024-02-04T01:15:58;15.63;;;10.48;;
68870;SDS011;55906;52.278;6.808;2024-02-04T01:18:25;14.50;;;9.75;;
68870;SDS011;55906;52.278;6.808;2024-02-04T01:20:51;14.13;;;9.30;;
68870;SDS011;55906;52.278;6.808;2024-02-04T01:23:18;16.88;;;10.20;;
68870;SDS011;55906;52.278;6.808;2024-02-04T01:25:45;17.90;;;11.30;;
68870;SDS011;55906;52.278;6.808;2024-02-04T01:28:13;17.23;;;10.60;;
68870;SDS011;55906;52.278;6.808;2024-02-04T01:30:40;17.13;;;11.07;;
68870;SDS011;55906;52.278;6.808;2024-02-04T01:33:07;16.50;;;10.73;;
68870;SDS011;55906;52.278;6.808;2024-02-04T01:35:34;17.13;;;10.70;;
68870;SDS011;55906;52.278;6.808;2024-02-04T01:38:02;17.00;;;10.73;;
68870;SDS011;55906;52.278;6.808;2024-02-04T01:40:29;18.45;;;11.23;;
68870;SDS011;55906;52.278;6.808;2024-02-04T01:42:56;16.40;;;11.15;;
68870;SDS011;55906;52.278;6.808;2024-02-04T01:45:24;16.67;;;9.87;;
68870;SDS011;55906;52.278;6.808;2024-02-04T01:47:51;16.75;;;10.23;;
68870;SDS011;55906;52.278;6.808;2024-02-04T01:50:19;17.48;;;10.60;;
68870;SDS011;55906;52.278;6.808;2024-02-04T01:52:46;14.98;;;9.45;;
68870;SDS011;55906;52.278;6.808;2024-02-04T01:55:13;15.32;;;10.27;;
68870;SDS011;55906;52.278;6.808;2024-02-04T01:57:40;12.07;;;8.50;;
68870;SDS011;55906;52.278;6.808;2024-02-04T02:00:07;16.10;;;9.40;;
68870;SDS011;55906;52.278;6.808;2024-02-04T02:02:38;16.40;;;8.20;;
68870;SDS011;55906;52.278;6.808;2024-02-04T02:05:06;13.05;;;8.00;;
68870;SDS011;55906;52.278;6.808;2024-02-04T02:07:33;11.68;;;8.75;;
68870;SDS011;55906;52.278;6.808;2024-02-04T02:10:01;12.80;;;8.80;;
68870;SDS011;55906;52.278;6.808;2024-02-04T02:12:32;11.35;;;8.30;;
68870;SDS011;55906;52.278;6.808;2024-02-04T02:15:05;15.77;;;9.95;;
68870;SDS011;55906;52.278;6.808;2024-02-04T02:17:44;12.38;;;7.85;;
68870;SDS011;55906;52.278;6.808;2024-02-04T02:20:19;13.48;;;8.02;;
68870;SDS011;55906;52.278;6.808;2024-02-04T02:22:50;13.67;;;8.20;;
68870;SDS011;55906;52.278;6.808;2024-02-04T02:25:27;13.32;;;7.88;;
68870;SDS011;55906;52.278;6.808;2024-02-04T02:27:54;11.18;;;7.78;;
68870;SDS011;55906;52.278;6.808;2024-02-04T02:30:21;9.05;;;6.53;;
68870;SDS011;55906;52.278;6.808;2024-02-04T02:32:48;10.48;;;7.45;;
68870;SDS011;55906;52.278;6.808;2024-02-04T02:35:16;11.80;;;7.17;;
68870;SDS011;55906;52.278;6.808;2024-02-04T02:37:44;11.02;;;6.95;;
68870;SDS011;55906;52.278;6.808;2024-02-04T02:40:20;10.35;;;7.28;;
68870;SDS011;55906;52.278;6.808;2024-02-04T02:42:51;10.23;;;7.03;;
68870;SDS011;55906;52.278;6.808;2024-02-04T02:45:19;8.45;;;6.10;;
68870;SDS011;55906;52.278;6.808;2024-02-04T02:47:47;8.80;;;5.87;;
68870;SDS011;55906;52.278;6.808;2024-02-04T02:50:15;9.60;;;6.43;;
68870;SDS011;55906;52.278;6.808;2024-02-04T02:52:42;8.77;;;6.25;;
68870;SDS011;55906;52.278;6.808;2024-02-04T02:55:09;8.25;;;5.55;;
68870;SDS011;55906;52.278;6.808;2024-02-04T02:57:36;9.47;;;6.57;;
68870;SDS011;55906;52.278;6.808;2024-02-04T03:00:05;8.40;;;6.75;;
68870;SDS011;55906;52.278;6.808;2024-02-04T03:02:34;11.27;;;6.95;;
68870;SDS011;55906;52.278;6.808;2024-02-04T03:05:01;10.68;;;6.72;;
68870;SDS011;55906;52.278;6.808;2024-02-04T03:07:28;9.48;;;7.45;;
68870;SDS011;55906;52.278;6.808;2024-02-04T03:09:54;10.37;;;6.60;;
68870;SDS011;55906;52.278;6.808;2024-02-04T03:12:21;10.50;;;6.40;;
68870;SDS011;55906;52.278;6.808;2024-02-04T03:14:48;10.68;;;6.65;;
68870;SDS011;55906;52.278;6.808;2024-02-04T03:17:16;11.32;;;7.05;;
68870;SDS011;55906;52.278;6.808;2024-02-04T03:19:45;12.05;;;6.88;;
68870;SDS011;55906;52.278;6.808;2024-02-04T03:22:13;10.02;;;6.63;;
68870;SDS011;55906;52.278;6.808;2024-02-04T03:24:40;12.10;;;7.55;;
68870;SDS011;55906;52.278;6.808;2024-02-04T03:27:07;13.32;;;7.15;;
68870;SDS011;55906;52.278;6.808;2024-02-04T03:29:34;12.35;;;7.55;;
68870;SDS011;55906;52.278;6.808;2024-02-04T03:32:01;10.87;;;7.87;;
68870;SDS011;55906;52.278;6.808;2024-02-04T03:34:29;12.90;;;7.95;;
68870;SDS011;55906;52.278;6.808;2024-02-04T03:36:56;10.43;;;7.95;;
68870;SDS011;55906;52.278;6.808;2024-02-04T03:39:23;13.20;;;8.00;;
68870;SDS011;55906;52.278;6.808;2024-02-04T03:41:49;11.25;;;8.35;;
68870;SDS011;55906;52.278;6.808;2024-02-04T03:44:16;12.93;;;8.47;;
68870;SDS011;55906;52.278;6.808;2024-02-04T03:46:43;13.35;;;8.20;;
68870;SDS011;55906;52.278;6.808;2024-02-04T03:49:10;12.30;;;7.85;;
68870;SDS011;55906;52.278;6.808;2024-02-04T03:51:38;12.70;;;8.68;;
68870;SDS011;55906;52.278;6.808;2024-02-04T03:54:05;13.60;;;8.15;;
68870;SDS011;55906;52.278;6.808;2024-02-04T03:56:33;11.03;;;7.30;;
68870;SDS011;55906;52.278;6.808;2024-02-04T03:59:00;14.98;;;8.02;;
68870;SDS011;55906;52.278;6.808;2024-02-04T04:01:27;14.68;;;8.98;;
68870;SDS011;55906;52.278;6.808;2024-02-04T04:03:54;13.45;;;7.85;;
68870;SDS011;55906;52.278;6.808;2024-02-04T04:06:21;11.53;;;7.80;;
68870;SDS011;55906;52.278;6.808;2024-02-04T04:08:49;15.85;;;8.27;;
68870;SDS011;55906;52.278;6.808;2024-02-04T04:11:15;14.82;;;7.53;;
68870;SDS011;55906;52.278;6.808;2024-02-04T04:13:42;14.32;;;7.45;;
68870;SDS011;55906;52.278;6.808;2024-02-04T04:16:09;12.00;;;5.88;;
68870;SDS011;55906;52.278;6.808;2024-02-04T04:18:36;12.07;;;6.73;;
68870;SDS011;55906;52.278;6.808;2024-02-04T04:21:03;11.88;;;4.90;;
68870;SDS011;55906;52.278;6.808;2024-02-04T04:23:30;13.63;;;6.00;;
68870;SDS011;55906;52.278;6.808;2024-02-04T04:25:58;8.57;;;4.85;;
68870;SDS011;55906;52.278;6.808;2024-02-04T04:28:25;14.97;;;5.13;;
68870;SDS011;55906;52.278;6.808;2024-02-04T04:30:52;9.95;;;5.13;;
68870;SDS011;55906;52.278;6.808;2024-02-04T04:33:18;8.77;;;4.95;;
68870;SDS011;55906;52.278;6.808;2024-02-04T04:35:45;10.75;;;4.82;;
68870;SDS011;55906;52.278;6.808;2024-02-04T04:38:12;8.93;;;4.88;;
68870;SDS011;55906;52.278;6.808;2024-02-04T04:40:39;11.37;;;5.20;;
68870;SDS011;55906;52.278;6.808;2024-02-04T04:43:08;9.20;;;4.45;;
68870;SDS011;55906;52.278;6.808;2024-02-04T04:45:35;9.52;;;4.50;;
68870;SDS011;55906;52.278;6.808;2024-02-04T04:48:02;9.40;;;4.68;;
68870;SDS011;55906;52.278;6.808;2024-02-04T04:50:29;12.70;;;5.18;;
68870;SDS011;55906;52.278;6.808;2024-02-04T04:52:55;9.00;;;4.83;;
68870;SDS011;55906;52.278;6.808;2024-02-04T04:55:22;11.85;;;5.10;;
68870;SDS011;55906;52.278;6.808;2024-02-04T04:57:49;8.98;;;4.50;;
68870;SDS011;55906;52.278;6.808;2024-02-04T05:00:19;11.55;;;4.45;;
68870;SDS011;55906;52.278;6.808;2024-02-04T05:02:46;11.57;;;4.17;;
68870;SDS011;55906;52.278;6.808;2024-02-04T05:05:13;8.75;;;4.82;;
68870;SDS011;55906;52.278;6.808;2024-02-04T05:07:40;6.85;;;3.85;;
68870;SDS011;55906;52.278;6.808;2024-02-04T05:10:07;8.77;;;4.40;;
68870;SDS011;55906;52.278;6.808;2024-02-04T05:12:34;13.25;;;4.18;;
68870;SDS011;55906;52.278;6.808;2024-02-04T05:15:02;11.40;;;4.13;;
68870;SDS011;55906;52.278;6.808;2024-02-04T05:17:31;9.50;;;4.00;;
68870;SDS011;55906;52.278;6.808;2024-02-04T05:19:58;12.77;;;5.63;;
68870;SDS011;55906;52.278;6.808;2024-02-04T05:22:25;6.97;;;4.20;;
68870;SDS011;55906;52.278;6.808;2024-02-04T05:24:52;9.63;;;4.40;;
68870;SDS011;55906;52.278;6.808;2024-02-04T05:27:19;9.25;;;4.47;;
68870;SDS011;55906;52.278;6.808;2024-02-04T05:29:46;9.93;;;4.47;;
68870;SDS011;55906;52.278;6.808;2024-02-04T05:32:13;11.70;;;4.80;;
68870;SDS011;55906;52.278;6.808;2024-02-04T05:34:41;11.45;;;4.90;;
68870;SDS011;55906;52.278;6.808;2024-02-04T05:37:08;7.27;;;4.20;;
68870;SDS011;55906;52.278;6.808;2024-02-04T05:39:35;8.80;;;4.18;;
68870;SDS011;55906;52.278;6.808;2024-02-04T05:42:02;7.55;;;4.75;;
68870;SDS011;55906;52.278;6.808;2024-02-04T05:44:29;10.75;;;4.10;;
68870;SDS011;55906;52.278;6.808;2024-02-04T05:46:56;9.43;;;4.90;;
68870;SDS011;55906;52.278;6.808;2024-02-04T05:49:22;13.05;;;4.95;;
68870;SDS011;55906;52.278;6.808;2024-02-04T05:51:50;8.80;;;4.45;;
68870;SDS011;55906;52.278;6.808;2024-02-04T05:54:17;10.65;;;4.90;;
68870;SDS011;55906;52.278;6.808;2024-02-04T05:56:44;8.43;;;4.45;;
68870;SDS011;55906;52.278;6.808;2024-02-04T05:59:11;16.13;;;5.10;;
68870;SDS011;55906;52.278;6.808;2024-02-04T06:01:38;8.18;;;4.13;;
68870;SDS011;55906;52.278;6.808;2024-02-04T06:04:04;7.22;;;4.18;;
68870;SDS011;55906;52.278;6.808;2024-02-04T06:06:31;9.45;;;4.53;;
68870;SDS011;55906;52.278;6.808;2024-02-04T06:09:00;10.05;;;4.05;;
68870;SDS011;55906;52.278;6.808;2024-02-04T06:11:27;11.10;;;5.00;;
68870;SDS011;55906;52.278;6.808;2024-02-04T06:13:54;8.75;;;4.35;;
68870;SDS011;55906;52.278;6.808;2024-02-04T06:16:21;10.18;;;4.35;;
68870;SDS011;55906;52.278;6.808;2024-02-04T06:18:48;9.93;;;3.72;;
68870;SDS011;55906;52.278;6.808;2024-02-04T06:21:14;8.73;;;3.83;;
68870;SDS011;55906;52.278;6.808;2024-02-04T06:23:41;9.37;;;3.87;;
68870;SDS011;55906;52.278;6.808;2024-02-04T06:26:09;9.48;;;3.38;;
68870;SDS011;55906;52.278;6.808;2024-02-04T06:28:36;7.05;;;3.80;;
68870;SDS011;55906;52.278;6.808;2024-02-04T06:31:03;10.00;;;4.53;;
68870;SDS011;55906;52.278;6.808;2024-02-04T06:33:30;7.95;;;3.83;;
68870;SDS011;55906;52.278;6.808;2024-02-04T06:35:57;8.67;;;3.30;;
68870;SDS011;55906;52.278;6.808;2024-02-04T06:38:23;7.38;;;3.58;;
68870;SDS011;55906;52.278;6.808;2024-02-04T06:40:50;10.57;;;4.05;;
68870;SDS011;55906;52.278;6.808;2024-02-04T06:43:18;8.27;;;4.10;;
68870;SDS011;55906;52.278;6.808;2024-02-04T06:45:45;7.93;;;3.37;;
68870;SDS011;55906;52.278;6.808;2024-02-04T06:48:12;12.35;;;4.28;;
68870;SDS011;55906;52.278;6.808;2024-02-04T06:50:39;11.02;;;3.75;;
68870;SDS011;55906;52.278;6.808;2024-02-04T06:53:08;10.63;;;3.88;;
68870;SDS011;55906;52.278;6.808;2024-02-04T06:55:35;13.02;;;3.72;;
68870;SDS011;55906;52.278;6.808;2024-02-04T06:58:02;11.30;;;3.70;;
68870;SDS011;55906;52.278;6.808;2024-02-04T07:00:30;9.65;;;3.72;;
68870;SDS011;55906;52.278;6.808;2024-02-04T07:02:57;11.10;;;4.05;;
68870;SDS011;55906;52.278;6.808;2024-02-04T07:05:24;9.88;;;3.60;;
68870;SDS011;55906;52.278;6.808;2024-02-04T07:07:51;10.83;;;3.90;;
68870;SDS011;55906;52.278;6.808;2024-02-04T07:10:17;13.00;;;3.80;;
68870;SDS011;55906;52.278;6.808;2024-02-04T07:12:44;8.75;;;4.05;;
68870;SDS011;55906;52.278;6.808;2024-02-04T07:15:11;10.90;;;4.15;;
68870;SDS011;55906;52.278;6.808;2024-02-04T07:17:39;14.27;;;4.60;;
68870;SDS011;55906;52.278;6.808;2024-02-04T07:20:08;12.50;;;4.28;;
68870;SDS011;55906;52.278;6.808;2024-02-04T07:22:35;11.05;;;3.97;;
68870;SDS011;55906;52.278;6.808;2024-02-04T07:25:02;10.07;;;4.00;;
68870;SDS011;55906;52.278;6.808;2024-02-04T07:27:29;9.95;;;4.40;;
68870;SDS011;55906;52.278;6.808;2024-02-04T07:29:56;10.73;;;3.93;;
68870;SDS011;55906;52.278;6.808;2024-02-04T07:32:23;8.18;;;3.60;;
68870;SDS011;55906;52.278;6.808;2024-02-04T07:34:51;10.00;;;4.00;;
68870;SDS011;55906;52.278;6.808;2024-02-04T07:37:18;7.70;;;4.05;;
68870;SDS011;55906;52.278;6.808;2024-02-04T07:39:45;9.33;;;4.40;;
68870;SDS011;55906;52.278;6.808;2024-02-04T07:42:12;10.38;;;4.10;;
68870;SDS011;55906;52.278;6.808;2024-02-04T07:44:39;10.75;;;4.10;;
68870;SDS011;55906;52.278;6.808;2024-02-04T07:47:05;13.10;;;4.13;;
68870;SDS011;55906;52.278;6.808;2024-02-04T07:49:32;8.95;;;4.20;;
68870;SDS011;55906;52.278;6.808;2024-02-04T07:52:00;13.65;;;4.82;;
68870;SDS011;55906;52.278;6.808;2024-02-04T07:54:26;13.50;;;4.20;;
68870;SDS011;55906;52.278;6.808;2024-02-04T07:56:53;13.73;;;4.43;;
68870;SDS011;55906;52.278;6.808;2024-02-04T07:59:20;11.45;;;3.78;;
68870;SDS011;55906;52.278;6.808;2024-02-04T08:01:47;12.80;;;4.07;;
68870;SDS011;55906;52.278;6.808;2024-02-04T08:04:14;10.95;;;4.35;;
68870;SDS011;55906;52.278;6.808;2024-02-04T08:06:41;11.40;;;5.03;;
68870;SDS011;55906;52.278;6.808;2024-02-04T08:09:09;11.48;;;4.43;;
68870;SDS011;55906;52.278;6.808;2024-02-04T08:11:37;13.90;;;4.32;;
68870;SDS011;55906;52.278;6.808;2024-02-04T08:14:03;12.40;;;4.60;;
68870;SDS011;55906;52.278;6.808;2024-02-04T08:16:30;12.43;;;4.88;;
68870;SDS011;55906;52.278;6.808;2024-02-04T08:18:57;10.15;;;4.53;;
68870;SDS011;55906;52.278;6.808;2024-02-04T08:21:24;7.93;;;4.70;;
68870;SDS011;55906;52.278;6.808;2024-02-04T08:23:51;9.27;;;4.33;;
68870;SDS011;55906;52.278;6.808;2024-02-04T08:26:19;10.43;;;4.55;;
68870;SDS011;55906;52.278;6.808;2024-02-04T08:28:46;14.25;;;5.03;;
68870;SDS011;55906;52.278;6.808;2024-02-04T08:31:12;11.75;;;4.72;;
68870;SDS011;55906;52.278;6.808;2024-02-04T08:33:39;9.32;;;5.03;;
68870;SDS011;55906;52.278;6.808;2024-02-04T08:36:06;14.90;;;5.17;;
68870;SDS011;55906;52.278;6.808;2024-02-04T08:38:35;16.67;;;4.97;;
68870;SDS011;55906;52.278;6.808;2024-02-04T08:41:02;9.60;;;5.07;;
68870;SDS011;55906;52.278;6.808;2024-02-04T08:43:30;6.35;;;4.30;;
68870;SDS011;55906;52.278;6.808;2024-02-04T08:45:57;9.40;;;5.32;;
68870;SDS011;55906;52.278;6.808;2024-02-04T08:48:24;11.67;;;5.00;;
68870;SDS011;55906;52.278;6.808;2024-02-04T08:50:50;9.75;;;4.63;;
68870;SDS011;55906;52.278;6.808;2024-02-04T08:53:19;9.55;;;5.03;;
68870;SDS011;55906;52.278;6.808;2024-02-04T08:55:46;9.60;;;4.25;;
68870;SDS011;55906;52.278;6.808;2024-02-04T08:58:13;10.93;;;5.38;;
68870;SDS011;55906;52.278;6.808;2024-02-04T09:00:41;12.45;;;5.65;;
68870;SDS011;55906;52.278;6.808;2024-02-04T09:03:07;8.95;;;4.40;;
68870;SDS011;55906;52.278;6.808;2024-02-04T09:05:34;8.98;;;4.78;;
68870;SDS011;55906;52.278;6.808;2024-02-04T09:08:01;10.90;;;4.85;;
68870;SDS011;55906;52.278;6.808;2024-02-04T09:10:28;8.37;;;5.37;;
68870;SDS011;55906;52.278;6.808;2024-02-04T09:12:55;9.90;;;5.10;;
68870;SDS011;55906;52.278;6.808;2024-02-04T09:15:21;9.23;;;4.50;;
68870;SDS011;55906;52.278;6.808;2024-02-04T09:17:49;8.52;;;4.43;;
68870;SDS011;55906;52.278;6.808;2024-02-04T09:20:16;12.27;;;4.85;;
68870;SDS011;55906;52.278;6.808;2024-02-04T09:22:43;6.80;;;4.17;;
68870;SDS011;55906;52.278;6.808;2024-02-04T09:25:10;8.55;;;4.40;;
68870;SDS011;55906;52.278;6.808;2024-02-04T09:27:36;9.20;;;4.28;;
68870;SDS011;55906;52.278;6.808;2024-02-04T09:30:04;9.35;;;4.10;;
68870;SDS011;55906;52.278;6.808;2024-02-04T09:32:31;11.15;;;4.05;;
68870;SDS011;55906;52.278;6.808;2024-02-04T09:35:00;7.50;;;4.43;;
68870;SDS011;55906;52.278;6.808;2024-02-04T09:37:27;10.13;;;5.38;;
68870;SDS011;55906;52.278;6.808;2024-02-04T09:39:54;8.15;;;5.43;;
68870;SDS011;55906;52.278;6.808;2024-02-04T09:42:21;7.93;;;4.50;;
68870;SDS011;55906;52.278;6.808;2024-02-04T09:44:48;8.73;;;5.45;;
68870;SDS011;55906;52.278;6.808;2024-02-04T09:47:16;8.63;;;5.60;;
68870;SDS011;55906;52.278;6.808;2024-02-04T09:49:43;11.30;;;6.90;;
68870;SDS011;55906;52.278;6.808;2024-02-04T09:52:12;14.98;;;7.13;;
68870;SDS011;55906;52.278;6.808;2024-02-04T09:54:41;12.18;;;6.50;;
68870;SDS011;55906;52.278;6.808;2024-02-04T09:57:11;10.38;;;6.97;;
68870;SDS011;55906;52.278;6.808;2024-02-04T09:59:39;8.23;;;5.80;;
68870;SDS011;55906;52.278;6.808;2024-02-04T10:02:05;12.57;;;6.30;;
68870;SDS011;55906;52.278;6.808;2024-02-04T10:04:33;43.28;;;13.20;;
68870;SDS011;55906;52.278;6.808;2024-02-04T10:07:00;40.20;;;11.98;;
68870;SDS011;55906;52.278;6.808;2024-02-04T10:09:29;32.47;;;12.13;;
68870;SDS011;55906;52.278;6.808;2024-02-04T10:11:56;50.53;;;16.00;;
68870;SDS011;55906;52.278;6.808;2024-02-04T10:14:23;48.72;;;17.45;;
68870;SDS011;55906;52.278;6.808;2024-02-04T10:16:50;30.17;;;13.38;;
68870;SDS011;55906;52.278;6.808;2024-02-04T10:19:17;19.67;;;11.35;;
68870;SDS011;55906;52.278;6.808;2024-02-04T10:21:44;18.07;;;9.80;;
68870;SDS011;55906;52.278;6.808;2024-02-04T10:24:11;12.90;;;7.10;;
68870;SDS011;55906;52.278;6.808;2024-02-04T10:26:39;14.60;;;8.68;;
68870;SDS011;55906;52.278;6.808;2024-02-04T10:29:08;13.93;;;8.82;;
68870;SDS011;55906;52.278;6.808;2024-02-04T10:31:35;11.65;;;8.27;;
68870;SDS011;55906;52.278;6.808;2024-02-04T10:34:02;15.23;;;9.10;;
68870;SDS011;55906;52.278;6.808;2024-02-04T10:36:30;14.10;;;7.88;;
68870;SDS011;55906;52.278;6.808;2024-02-04T10:38:57;11.88;;;7.32;;
68870;SDS011;55906;52.278;6.808;2024-02-04T10:41:24;11.95;;;7.05;;
68870;SDS011;55906;52.278;6.808;2024-02-04T10:43:53;15.05;;;8.68;;
68870;SDS011;55906;52.278;6.808;2024-02-04T10:46:22;12.80;;;8.17;;
68870;SDS011;55906;52.278;6.808;2024-02-04T10:48:55;11.18;;;7.72;;
68870;SDS011;55906;52.278;6.808;2024-02-04T10:51:24;10.55;;;7.50;;
68870;SDS011;55906;52.278;6.808;2024-02-04T10:53:53;16.92;;;8.73;;
68870;SDS011;55906;52.278;6.808;2024-02-04T10:56:22;11.45;;;7.13;;
68870;SDS011;55906;52.278;6.808;2024-02-04T10:58:51;14.27;;;7.70;;
68870;SDS011;55906;52.278;6.808;2024-02-04T11:01:21;12.20;;;7.50;;
68870;SDS011;55906;52.278;6.808;2024-02-04T11:03:49;12.65;;;7.18;;
68870;SDS011;55906;52.278;6.808;2024-02-04T11:06:17;11.38;;;6.90;;
68870;SDS011;55906;52.278;6.808;2024-02-04T11:08:46;10.63;;;6.70;;
68870;SDS011;55906;52.278;6.808;2024-02-04T11:11:13;8.87;;;6.20;;
68870;SDS011;55906;52.278;6.808;2024-02-04T11:13:41;10.45;;;6.70;;
68870;SDS011;55906;52.278;6.808;2024-02-04T11:16:14;10.23;;;6.63;;
68870;SDS011;55906;52.278;6.808;2024-02-04T11:19:11;9.82;;;6.13;;
68870;SDS011;55906;52.278;6.808;2024-02-04T11:24:50;8.53;;;5.17;;
68870;SDS011;55906;52.278;6.808;2024-02-04T11:27:25;7.43;;;5.13;;
68870;SDS011;55906;52.278;6.808;2024-02-04T11:29:53;8.48;;;4.65;;
68870;SDS011;55906;52.278;6.808;2024-02-04T11:32:21;7.15;;;5.15;;
68870;SDS011;55906;52.278;6.808;2024-02-04T11:34:50;7.10;;;5.30;;
68870;SDS011;55906;52.278;6.808;2024-02-04T11:37:17;5.70;;;4.07;;
68870;SDS011;55906;52.278;6.808;2024-02-04T11:39:48;5.80;;;4.43;;
68870;SDS011;55906;52.278;6.808;2024-02-04T11:42:16;7.10;;;4.90;;
68870;SDS011;55906;52.278;6.808;2024-02-04T11:44:43;7.90;;;4.10;;
68870;SDS011;55906;52.278;6.808;2024-02-04T11:47:10;6.15;;;4.70;;
68870;SDS011;55906;52.278;6.808;2024-02-04T11:49:39;13.47;;;9.17;;
68870;SDS011;55906;52.278;6.808;2024-02-04T11:52:05;7.57;;;5.30;;
68870;SDS011;55906;52.278;6.808;2024-02-04T11:54:32;6.43;;;4.60;;
68870;SDS011;55906;52.278;6.808;2024-02-04T11:56:59;6.95;;;3.80;;
68870;SDS011;55906;52.278;6.808;2024-02-04T11:59:26;5.35;;;4.20;;
68870;SDS011;55906;52.278;6.808;2024-02-04T12:01:53;7.83;;;3.97;;
68870;SDS011;55906;52.278;6.808;2024-02-04T12:04:21;5.95;;;3.80;;
68870;SDS011;55906;52.278;6.808;2024-02-04T12:06:50;6.57;;;3.70;;
68870;SDS011;55906;52.278;6.808;2024-02-04T12:09:17;6.25;;;3.92;;
68870;SDS011;55906;52.278;6.808;2024-02-04T12:11:45;5.97;;;3.47;;
68870;SDS011;55906;52.278;6.808;2024-02-04T12:14:12;7.17;;;3.97;;
68870;SDS011;55906;52.278;6.808;2024-02-04T12:16:39;6.78;;;3.55;;
68870;SDS011;55906;52.278;6.808;2024-02-04T12:19:07;5.82;;;3.38;;
68870;SDS011;55906;52.278;6.808;2024-02-04T12:21:33;4.97;;;3.40;;
68870;SDS011;55906;52.278;6.808;2024-02-04T12:24:03;5.50;;;3.42;;
68870;SDS011;55906;52.278;6.808;2024-02-04T12:26:30;4.17;;;2.90;;
68870;SDS011;55906;52.278;6.808;2024-02-04T12:28:57;6.68;;;3.00;;
68870;SDS011;55906;52.278;6.808;2024-02-04T12:31:25;4.50;;;3.00;;
68870;SDS011;55906;52.278;6.808;2024-02-04T12:33:54;5.88;;;3.03;;
68870;SDS011;55906;52.278;6.808;2024-02-04T12:36:23;5.60;;;3.45;;
68870;SDS011;55906;52.278;6.808;2024-02-04T12:38:52;5.17;;;2.90;;
68870;SDS011;55906;52.278;6.808;2024-02-04T12:41:21;4.20;;;2.85;;
68870;SDS011;55906;52.278;6.808;2024-02-04T12:43:51;4.75;;;3.53;;
68870;SDS011;55906;52.278;6.808;2024-02-04T12:46:19;6.18;;;3.25;;
68870;SDS011;55906;52.278;6.808;2024-02-04T12:48:51;6.35;;;3.40;;
68870;SDS011;55906;52.278;6.808;2024-02-04T12:51:23;5.23;;;2.90;;
68870;SDS011;55906;52.278;6.808;2024-02-04T12:53:50;6.82;;;4.28;;
68870;SDS011;55906;52.278;6.808;2024-02-04T12:56:40;5.60;;;3.40;;
68870;SDS011;55906;52.278;6.808;2024-02-04T12:59:10;6.00;;;3.92;;
68870;SDS011;55906;52.278;6.808;2024-02-04T13:01:37;5.82;;;3.78;;
68870;SDS011;55906;52.278;6.808;2024-02-04T13:04:04;5.53;;;3.43;;
68870;SDS011;55906;52.278;6.808;2024-02-04T13:06:37;4.90;;;4.07;;
68870;SDS011;55906;52.278;6.808;2024-02-04T13:09:04;5.57;;;3.58;;
68870;SDS011;55906;52.278;6.808;2024-02-04T13:11:34;8.10;;;3.42;;
68870;SDS011;55906;52.278;6.808;2024-02-04T13:14:02;5.75;;;3.78;;
68870;SDS011;55906;52.278;6.808;2024-02-04T13:16:29;5.17;;;3.30;;
68870;SDS011;55906;52.278;6.808;2024-02-04T13:18:56;7.32;;;3.47;;
68870;SDS011;55906;52.278;6.808;2024-02-04T13:21:22;6.72;;;3.78;;
68870;SDS011;55906;52.278;6.808;2024-02-04T13:23:49;4.85;;;3.90;;
68870;SDS011;55906;52.278;6.808;2024-02-04T13:26:16;6.30;;;3.63;;
68870;SDS011;55906;52.278;6.808;2024-02-04T13:28:43;4.87;;;3.67;;
68870;SDS011;55906;52.278;6.808;2024-02-04T13:31:11;4.63;;;3.10;;
68870;SDS011;55906;52.278;6.808;2024-02-04T13:33:38;4.22;;;3.30;;
68870;SDS011;55906;52.278;6.808;2024-02-04T13:36:06;5.43;;;3.85;;
68870;SDS011;55906;52.278;6.808;2024-02-04T13:38:34;5.53;;;3.00;;
68870;SDS011;55906;52.278;6.808;2024-02-04T13:41:01;6.20;;;3.60;;
68870;SDS011;55906;52.278;6.808;2024-02-04T13:43:29;4.78;;;3.10;;
68870;SDS011;55906;52.278;6.808;2024-02-04T13:45:56;5.13;;;3.80;;
68870;SDS011;55906;52.278;6.808;2024-02-04T13:48:24;5.22;;;3.60;;
68870;SDS011;55906;52.278;6.808;2024-02-04T13:50:51;6.78;;;3.80;;
68870;SDS011;55906;52.278;6.808;2024-02-04T13:53:19;4.07;;;3.10;;
68870;SDS011;55906;52.278;6.808;2024-02-04T13:55:46;4.97;;;3.47;;
68870;SDS011;55906;52.278;6.808;2024-02-04T13:58:12;4.15;;;3.30;;
68870;SDS011;55906;52.278;6.808;2024-02-04T14:00:39;5.05;;;3.03;;
68870;SDS011;55906;52.278;6.808;2024-02-04T14:03:06;5.85;;;4.47;;
68870;SDS011;55906;52.278;6.808;2024-02-04T14:05:34;5.53;;;4.23;;
68870;SDS011;55906;52.278;6.808;2024-02-04T14:08:01;4.95;;;3.50;;
68870;SDS011;55906;52.278;6.808;2024-02-04T14:10:28;4.45;;;3.53;;
68870;SDS011;55906;52.278;6.808;2024-02-04T14:12:55;5.15;;;3.70;;
68870;SDS011;55906;52.278;6.808;2024-02-04T14:15:22;5.35;;;3.97;;
68870;SDS011;55906;52.278;6.808;2024-02-04T14:17:48;4.97;;;3.60;;
68870;SDS011;55906;52.278;6.808;2024-02-04T14:20:15;5.93;;;4.30;;
68870;SDS011;55906;52.278;6.808;2024-02-04T14:22:44;6.55;;;4.57;;
68870;SDS011;55906;52.278;6.808;2024-02-04T14:25:11;5.32;;;4.22;;
68870;SDS011;55906;52.278;6.808;2024-02-04T14:27:38;5.82;;;3.70;;
68870;SDS011;55906;52.278;6.808;2024-02-04T14:30:06;5.00;;;3.47;;
68870;SDS011;55906;52.278;6.808;2024-02-04T14:32:33;4.78;;;3.08;;
68870;SDS011;55906;52.278;6.808;2024-02-04T14:35:00;5.93;;;3.80;;
68870;SDS011;55906;52.278;6.808;2024-02-04T14:37:29;6.28;;;4.03;;
68870;SDS011;55906;52.278;6.808;2024-02-04T14:39:58;6.05;;;4.00;;
68870;SDS011;55906;52.278;6.808;2024-02-04T14:42:26;6.73;;;4.13;;
68870;SDS011;55906;52.278;6.808;2024-02-04T14:44:53;7.95;;;4.82;;